Palena, Chile
Current Conditions -  °F | °C
As of 12:00 PM on Monday 22 Dec 2014 (Local Time) from SCAP Reporting Station
Broken Clouds Broken Clouds  
Wind Chill: 55°   Ceiling: 4000
Heat Index: 55°   Visibility: 6mi
Dew Point: 37°   Wind: 14mph
Humidity: 51%   Direction: 230°SW
Pressure: 30.36"   Gusts: NA
Location:  43.62°S, 71.81°W
Report Text: SCAP 221500Z 23012KT 190V260 9999 BKN040 13/03 Q1028
Loading
Personal Weather Stations






























Interactive Weather Map New forecast layout! Learn more

10-Day Weather Forecast

Advertisements
Track Severe Weather on mobile